sensor_id;sensor_type;location;lat;lon;timestamp;temperature;humidity
38333;DHT22;25748;46.670;14.272;2023-08-21T00:00:21;19.00;68.20
38333;DHT22;25748;46.670;14.272;2023-08-21T00:02:47;19.10;68.30
38333;DHT22;25748;46.670;14.272;2023-08-21T00:05:12;19.10;68.40
38333;DHT22;25748;46.670;14.272;2023-08-21T00:07:38;19.10;68.30
38333;DHT22;25748;46.670;14.272;2023-08-21T00:10:04;19.00;68.80
38333;DHT22;25748;46.670;14.272;2023-08-21T00:12:30;19.10;68.90
38333;DHT22;25748;46.670;14.272;2023-08-21T00:14:57;19.10;69.00
38333;DHT22;25748;46.670;14.272;2023-08-21T00:17:22;19.00;68.80
38333;DHT22;25748;46.670;14.272;2023-08-21T00:19:48;19.00;68.50
38333;DHT22;25748;46.670;14.272;2023-08-21T00:22:14;19.00;68.60
38333;DHT22;25748;46.670;14.272;2023-08-21T00:24:39;18.90;68.90
38333;DHT22;25748;46.670;14.272;2023-08-21T00:27:05;18.80;69.40
38333;DHT22;25748;46.670;14.272;2023-08-21T00:29:31;18.80;69.70
38333;DHT22;25748;46.670;14.272;2023-08-21T00:31:56;18.80;69.80
38333;DHT22;25748;46.670;14.272;2023-08-21T00:34:22;18.80;69.90
38333;DHT22;25748;46.670;14.272;2023-08-21T00:36:47;18.70;70.30
38333;DHT22;25748;46.670;14.272;2023-08-21T00:39:13;18.80;70.70
38333;DHT22;25748;46.670;14.272;2023-08-21T00:41:39;18.80;70.60
38333;DHT22;25748;46.670;14.272;2023-08-21T00:44:05;18.70;70.80
38333;DHT22;25748;46.670;14.272;2023-08-21T00:46:31;18.70;70.90
38333;DHT22;25748;46.670;14.272;2023-08-21T00:48:57;18.70;70.70
38333;DHT22;25748;46.670;14.272;2023-08-21T00:51:23;18.70;70.90
38333;DHT22;25748;46.670;14.272;2023-08-21T00:53:49;18.70;70.70
38333;DHT22;25748;46.670;14.272;2023-08-21T00:56:15;18.70;70.80
38333;DHT22;25748;46.670;14.272;2023-08-21T00:58:41;18.60;70.60
38333;DHT22;25748;46.670;14.272;2023-08-21T01:01:08;18.50;71.00
38333;DHT22;25748;46.670;14.272;2023-08-21T01:03:34;18.50;71.10
38333;DHT22;25748;46.670;14.272;2023-08-21T01:06:00;18.50;71.40
38333;DHT22;25748;46.670;14.272;2023-08-21T01:11:08;18.50;73.20
38333;DHT22;25748;46.670;14.272;2023-08-21T01:16:34;18.50;73.00
38333;DHT22;25748;46.670;14.272;2023-08-21T01:19:01;18.50;72.50
38333;DHT22;25748;46.670;14.272;2023-08-21T01:21:29;18.40;72.00
38333;DHT22;25748;46.670;14.272;2023-08-21T01:23:55;18.40;72.60
38333;DHT22;25748;46.670;14.272;2023-08-21T01:26:21;18.40;73.00
38333;DHT22;25748;46.670;14.272;2023-08-21T01:28:46;18.40;73.10
38333;DHT22;25748;46.670;14.272;2023-08-21T01:31:21;18.40;73.20
38333;DHT22;25748;46.670;14.272;2023-08-21T01:33:51;18.30;73.10
38333;DHT22;25748;46.670;14.272;2023-08-21T01:36:19;18.30;73.00
38333;DHT22;25748;46.670;14.272;2023-08-21T01:38:45;18.30;73.70
38333;DHT22;25748;46.670;14.272;2023-08-21T01:41:10;18.30;73.30
38333;DHT22;25748;46.670;14.272;2023-08-21T01:43:36;18.30;73.40
38333;DHT22;25748;46.670;14.272;2023-08-21T01:46:02;18.30;73.60
38333;DHT22;25748;46.670;14.272;2023-08-21T01:48:30;18.30;74.20
38333;DHT22;25748;46.670;14.272;2023-08-21T01:50:56;18.30;74.10
38333;DHT22;25748;46.670;14.272;2023-08-21T01:53:22;18.30;74.00
38333;DHT22;25748;46.670;14.272;2023-08-21T01:55:47;18.30;74.00
38333;DHT22;25748;46.670;14.272;2023-08-21T01:58:13;18.20;74.00
38333;DHT22;25748;46.670;14.272;2023-08-21T02:00:39;18.20;74.20
38333;DHT22;25748;46.670;14.272;2023-08-21T02:03:05;18.20;74.10
38333;DHT22;25748;46.670;14.272;2023-08-21T02:05:37;18.20;74.30
38333;DHT22;25748;46.670;14.272;2023-08-21T02:08:03;18.20;74.00
38333;DHT22;25748;46.670;14.272;2023-08-21T02:10:29;18.20;74.00
38333;DHT22;25748;46.670;14.272;2023-08-21T02:12:54;18.10;74.10
38333;DHT22;25748;46.670;14.272;2023-08-21T02:15:20;18.10;74.10
38333;DHT22;25748;46.670;14.272;2023-08-21T02:17:47;18.00;74.30
38333;DHT22;25748;46.670;14.272;2023-08-21T02:20:13;18.00;74.40
38333;DHT22;25748;46.670;14.272;2023-08-21T02:22:38;17.90;74.40
38333;DHT22;25748;46.670;14.272;2023-08-21T02:25:04;17.90;74.50
38333;DHT22;25748;46.670;14.272;2023-08-21T02:27:30;17.80;74.60
38333;DHT22;25748;46.670;14.272;2023-08-21T02:29:56;17.80;75.10
38333;DHT22;25748;46.670;14.272;2023-08-21T02:32:22;17.80;75.50
38333;DHT22;25748;46.670;14.272;2023-08-21T02:34:47;17.80;75.70
38333;DHT22;25748;46.670;14.272;2023-08-21T02:37:13;17.70;76.10
38333;DHT22;25748;46.670;14.272;2023-08-21T02:39:38;17.80;76.30
38333;DHT22;25748;46.670;14.272;2023-08-21T02:42:04;17.80;76.30
38333;DHT22;25748;46.670;14.272;2023-08-21T02:44:30;17.70;75.90
38333;DHT22;25748;46.670;14.272;2023-08-21T02:46:55;17.70;76.10
38333;DHT22;25748;46.670;14.272;2023-08-21T02:49:23;17.70;76.10
38333;DHT22;25748;46.670;14.272;2023-08-21T02:51:49;17.70;76.30
38333;DHT22;25748;46.670;14.272;2023-08-21T02:54:14;17.70;76.30
38333;DHT22;25748;46.670;14.272;2023-08-21T02:56:40;17.70;76.40
38333;DHT22;25748;46.670;14.272;2023-08-21T02:59:06;17.70;77.00
38333;DHT22;25748;46.670;14.272;2023-08-21T03:01:32;17.70;76.70
38333;DHT22;25748;46.670;14.272;2023-08-21T03:03:57;17.60;76.90
38333;DHT22;25748;46.670;14.272;2023-08-21T03:06:23;17.60;76.80
38333;DHT22;25748;46.670;14.272;2023-08-21T03:08:48;17.60;76.60
38333;DHT22;25748;46.670;14.272;2023-08-21T03:11:14;17.60;76.50
38333;DHT22;25748;46.670;14.272;2023-08-21T03:13:40;17.60;76.20
38333;DHT22;25748;46.670;14.272;2023-08-21T03:16:06;17.60;76.40
38333;DHT22;25748;46.670;14.272;2023-08-21T03:18:35;17.50;76.00
38333;DHT22;25748;46.670;14.272;2023-08-21T03:21:18;17.50;76.10
38333;DHT22;25748;46.670;14.272;2023-08-21T03:23:43;17.50;76.20
38333;DHT22;25748;46.670;14.272;2023-08-21T03:26:09;17.50;75.90
38333;DHT22;25748;46.670;14.272;2023-08-21T03:28:35;17.40;75.90
38333;DHT22;25748;46.670;14.272;2023-08-21T03:31:00;17.50;76.10
38333;DHT22;25748;46.670;14.272;2023-08-21T03:33:26;17.40;76.10
38333;DHT22;25748;46.670;14.272;2023-08-21T03:35:55;17.40;76.10
38333;DHT22;25748;46.670;14.272;2023-08-21T03:38:20;17.40;76.10
38333;DHT22;25748;46.670;14.272;2023-08-21T03:40:46;17.40;76.10
38333;DHT22;25748;46.670;14.272;2023-08-21T03:43:12;17.40;76.20
38333;DHT22;25748;46.670;14.272;2023-08-21T03:45:37;17.40;76.30
38333;DHT22;25748;46.670;14.272;2023-08-21T03:48:03;17.40;76.40
38333;DHT22;25748;46.670;14.272;2023-08-21T03:50:29;17.40;76.30
38333;DHT22;25748;46.670;14.272;2023-08-21T03:52:54;17.30;76.00
38333;DHT22;25748;46.670;14.272;2023-08-21T03:55:20;17.30;76.20
38333;DHT22;25748;46.670;14.272;2023-08-21T03:57:46;17.30;76.60
38333;DHT22;25748;46.670;14.272;2023-08-21T04:00:12;17.30;76.90
38333;DHT22;25748;46.670;14.272;2023-08-21T04:02:37;17.30;77.00
38333;DHT22;25748;46.670;14.272;2023-08-21T04:05:03;17.30;77.40
38333;DHT22;25748;46.670;14.272;2023-08-21T04:07:29;17.20;77.50
38333;DHT22;25748;46.670;14.272;2023-08-21T04:09:55;17.20;77.30
38333;DHT22;25748;46.670;14.272;2023-08-21T04:12:20;17.20;77.40
38333;DHT22;25748;46.670;14.272;2023-08-21T04:14:46;17.20;77.30
38333;DHT22;25748;46.670;14.272;2023-08-21T04:17:12;17.20;76.80
38333;DHT22;25748;46.670;14.272;2023-08-21T04:19:37;17.20;77.30
38333;DHT22;25748;46.670;14.272;2023-08-21T04:22:06;17.20;77.50
38333;DHT22;25748;46.670;14.272;2023-08-21T04:24:32;17.10;77.30
38333;DHT22;25748;46.670;14.272;2023-08-21T04:26:58;17.20;77.80
38333;DHT22;25748;46.670;14.272;2023-08-21T04:29:23;17.20;78.00
38333;DHT22;25748;46.670;14.272;2023-08-21T04:31:49;17.20;78.10
38333;DHT22;25748;46.670;14.272;2023-08-21T04:34:15;17.20;78.20
38333;DHT22;25748;46.670;14.272;2023-08-21T04:36:40;17.20;78.30
38333;DHT22;25748;46.670;14.272;2023-08-21T04:39:06;17.20;78.40
38333;DHT22;25748;46.670;14.272;2023-08-21T04:41:32;17.20;78.50
38333;DHT22;25748;46.670;14.272;2023-08-21T04:43:57;17.20;78.50
38333;DHT22;25748;46.670;14.272;2023-08-21T04:46:23;17.20;78.50
38333;DHT22;25748;46.670;14.272;2023-08-21T04:48:49;17.30;78.60
38333;DHT22;25748;46.670;14.272;2023-08-21T04:51:14;17.30;78.60
38333;DHT22;25748;46.670;14.272;2023-08-21T04:53:40;17.30;78.60
38333;DHT22;25748;46.670;14.272;2023-08-21T04:56:06;17.30;78.70
38333;DHT22;25748;46.670;14.272;2023-08-21T04:58:31;17.30;78.90
38333;DHT22;25748;46.670;14.272;2023-08-21T05:00:57;17.40;79.20
38333;DHT22;25748;46.670;14.272;2023-08-21T05:03:22;17.40;79.40
38333;DHT22;25748;46.670;14.272;2023-08-21T05:05:55;17.40;79.50
38333;DHT22;25748;46.670;14.272;2023-08-21T05:08:25;17.40;79.80
38333;DHT22;25748;46.670;14.272;2023-08-21T05:10:58;17.50;80.10
38333;DHT22;25748;46.670;14.272;2023-08-21T05:13:24;17.50;80.20
38333;DHT22;25748;46.670;14.272;2023-08-21T05:15:56;17.50;80.40
38333;DHT22;25748;46.670;14.272;2023-08-21T05:18:24;17.60;80.50
38333;DHT22;25748;46.670;14.272;2023-08-21T05:20:52;17.60;80.60
38333;DHT22;25748;46.670;14.272;2023-08-21T05:23:18;17.60;80.80
38333;DHT22;25748;46.670;14.272;2023-08-21T05:25:45;17.70;81.20
38333;DHT22;25748;46.670;14.272;2023-08-21T05:28:10;17.80;81.40
38333;DHT22;25748;46.670;14.272;2023-08-21T05:30:37;17.80;81.80
38333;DHT22;25748;46.670;14.272;2023-08-21T05:33:04;17.90;82.40
38333;DHT22;25748;46.670;14.272;2023-08-21T05:35:33;18.00;82.80
38333;DHT22;25748;46.670;14.272;2023-08-21T05:38:04;18.10;83.10
38333;DHT22;25748;46.670;14.272;2023-08-21T05:40:30;18.20;83.50
38333;DHT22;25748;46.670;14.272;2023-08-21T05:42:55;18.30;83.70
38333;DHT22;25748;46.670;14.272;2023-08-21T05:45:21;18.50;83.80
38333;DHT22;25748;46.670;14.272;2023-08-21T05:47:47;18.60;83.20
38333;DHT22;25748;46.670;14.272;2023-08-21T05:50:12;18.70;82.10
38333;DHT22;25748;46.670;14.272;2023-08-21T05:52:38;18.80;81.80
38333;DHT22;25748;46.670;14.272;2023-08-21T05:55:04;19.10;83.20
38333;DHT22;25748;46.670;14.272;2023-08-21T05:57:30;19.30;81.80
38333;DHT22;25748;46.670;14.272;2023-08-21T05:59:59;19.40;79.10
38333;DHT22;25748;46.670;14.272;2023-08-21T06:02:25;19.70;79.80
38333;DHT22;25748;46.670;14.272;2023-08-21T06:04:51;20.00;79.50
38333;DHT22;25748;46.670;14.272;2023-08-21T06:07:16;20.30;79.30
38333;DHT22;25748;46.670;14.272;2023-08-21T06:09:42;20.40;77.60
38333;DHT22;25748;46.670;14.272;2023-08-21T06:12:08;20.60;75.80
38333;DHT22;25748;46.670;14.272;2023-08-21T06:14:34;20.80;74.70
38333;DHT22;25748;46.670;14.272;2023-08-21T06:17:02;21.00;75.30
38333;DHT22;25748;46.670;14.272;2023-08-21T06:19:28;21.40;74.80
38333;DHT22;25748;46.670;14.272;2023-08-21T06:21:57;21.50;71.50
38333;DHT22;25748;46.670;14.272;2023-08-21T06:24:23;21.60;69.50
38333;DHT22;25748;46.670;14.272;2023-08-21T06:26:51;21.80;70.10
38333;DHT22;25748;46.670;14.272;2023-08-21T06:29:17;22.00;70.20
38333;DHT22;25748;46.670;14.272;2023-08-21T06:31:45;22.20;69.40
38333;DHT22;25748;46.670;14.272;2023-08-21T06:34:11;22.40;68.90
38333;DHT22;25748;46.670;14.272;2023-08-21T06:36:37;22.60;67.10
38333;DHT22;25748;46.670;14.272;2023-08-21T06:39:02;22.50;64.20
38333;DHT22;25748;46.670;14.272;2023-08-21T06:41:29;22.60;64.80
38333;DHT22;25748;46.670;14.272;2023-08-21T06:43:56;22.60;63.50
38333;DHT22;25748;46.670;14.272;2023-08-21T06:46:22;22.50;64.30
38333;DHT22;25748;46.670;14.272;2023-08-21T06:48:48;22.90;63.40
38333;DHT22;25748;46.670;14.272;2023-08-21T06:51:17;22.80;62.30
38333;DHT22;25748;46.670;14.272;2023-08-21T06:53:42;22.90;62.00
38333;DHT22;25748;46.670;14.272;2023-08-21T06:56:08;22.80;62.40
38333;DHT22;25748;46.670;14.272;2023-08-21T06:58:34;23.10;62.60
38333;DHT22;25748;46.670;14.272;2023-08-21T07:01:00;22.90;60.60
38333;DHT22;25748;46.670;14.272;2023-08-21T07:03:26;23.10;61.40
38333;DHT22;25748;46.670;14.272;2023-08-21T07:05:56;23.20;61.10
38333;DHT22;25748;46.670;14.272;2023-08-21T07:08:22;23.40;60.00
38333;DHT22;25748;46.670;14.272;2023-08-21T07:10:48;23.50;60.30
38333;DHT22;25748;46.670;14.272;2023-08-21T07:13:14;23.70;59.60
38333;DHT22;25748;46.670;14.272;2023-08-21T07:15:40;23.80;59.70
38333;DHT22;25748;46.670;14.272;2023-08-21T07:18:05;24.00;59.30
38333;DHT22;25748;46.670;14.272;2023-08-21T07:20:31;24.20;59.30
38333;DHT22;25748;46.670;14.272;2023-08-21T07:22:57;24.00;58.60
38333;DHT22;25748;46.670;14.272;2023-08-21T07:25:23;24.40;58.20
38333;DHT22;25748;46.670;14.272;2023-08-21T07:27:50;24.50;58.50
38333;DHT22;25748;46.670;14.272;2023-08-21T07:30:18;24.80;58.70
38333;DHT22;25748;46.670;14.272;2023-08-21T07:32:45;25.20;57.20
38333;DHT22;25748;46.670;14.272;2023-08-21T07:35:11;25.20;57.50
38333;DHT22;25748;46.670;14.272;2023-08-21T07:37:37;25.20;55.80
38333;DHT22;25748;46.670;14.272;2023-08-21T07:40:02;24.90;56.00
38333;DHT22;25748;46.670;14.272;2023-08-21T07:42:28;25.00;55.90
38333;DHT22;25748;46.670;14.272;2023-08-21T07:44:54;24.50;56.00
38333;DHT22;25748;46.670;14.272;2023-08-21T07:47:19;24.60;56.20
38333;DHT22;25748;46.670;14.272;2023-08-21T07:49:45;24.90;56.50
38333;DHT22;25748;46.670;14.272;2023-08-21T07:52:11;25.10;56.30
38333;DHT22;25748;46.670;14.272;2023-08-21T07:54:36;24.90;55.00
38333;DHT22;25748;46.670;14.272;2023-08-21T07:57:02;25.20;54.70
38333;DHT22;25748;46.670;14.272;2023-08-21T07:59:29;25.00;55.00
38333;DHT22;25748;46.670;14.272;2023-08-21T08:01:55;25.00;55.20
38333;DHT22;25748;46.670;14.272;2023-08-21T08:04:21;24.90;56.10
38333;DHT22;25748;46.670;14.272;2023-08-21T08:06:47;25.10;55.60
38333;DHT22;25748;46.670;14.272;2023-08-21T08:09:13;25.50;55.60
38333;DHT22;25748;46.670;14.272;2023-08-21T08:11:39;25.60;55.10
38333;DHT22;25748;46.670;14.272;2023-08-21T08:14:04;25.90;55.20
38333;DHT22;25748;46.670;14.272;2023-08-21T08:16:30;25.90;54.70
38333;DHT22;25748;46.670;14.272;2023-08-21T08:18:56;25.80;53.90
38333;DHT22;25748;46.670;14.272;2023-08-21T08:21:21;25.60;54.80
38333;DHT22;25748;46.670;14.272;2023-08-21T08:23:47;25.80;55.00
38333;DHT22;25748;46.670;14.272;2023-08-21T08:26:13;26.30;54.30
38333;DHT22;25748;46.670;14.272;2023-08-21T08:28:38;26.30;53.80
38333;DHT22;25748;46.670;14.272;2023-08-21T08:31:04;26.50;54.70
38333;DHT22;25748;46.670;14.272;2023-08-21T08:33:30;26.20;54.50
38333;DHT22;25748;46.670;14.272;2023-08-21T08:35:55;26.40;54.20
38333;DHT22;25748;46.670;14.272;2023-08-21T08:38:21;26.30;54.30
38333;DHT22;25748;46.670;14.272;2023-08-21T08:40:47;26.70;54.40
38333;DHT22;25748;46.670;14.272;2023-08-21T08:43:13;27.40;54.00
38333;DHT22;25748;46.670;14.272;2023-08-21T08:45:41;27.80;53.30
38333;DHT22;25748;46.670;14.272;2023-08-21T08:48:07;28.10;52.90
38333;DHT22;25748;46.670;14.272;2023-08-21T08:50:33;27.80;51.60
38333;DHT22;25748;46.670;14.272;2023-08-21T08:53:00;27.70;51.90
38333;DHT22;25748;46.670;14.272;2023-08-21T08:55:26;28.00;52.10
38333;DHT22;25748;46.670;14.272;2023-08-21T08:57:53;28.10;52.30
38333;DHT22;25748;46.670;14.272;2023-08-21T09:00:19;28.80;51.60
38333;DHT22;25748;46.670;14.272;2023-08-21T09:02:46;29.30;51.10
38333;DHT22;25748;46.670;14.272;2023-08-21T09:05:12;29.10;50.40
38333;DHT22;25748;46.670;14.272;2023-08-21T09:07:38;29.50;50.50
38333;DHT22;25748;46.670;14.272;2023-08-21T09:10:12;29.60;50.30
38333;DHT22;25748;46.670;14.272;2023-08-21T09:12:39;29.60;49.30
38333;DHT22;25748;46.670;14.272;2023-08-21T09:15:08;29.80;49.60
38333;DHT22;25748;46.670;14.272;2023-08-21T09:17:34;30.30;49.00
38333;DHT22;25748;46.670;14.272;2023-08-21T09:20:06;30.60;48.50
38333;DHT22;25748;46.670;14.272;2023-08-21T09:22:33;30.50;48.40
38333;DHT22;25748;46.670;14.272;2023-08-21T09:25:08;30.70;48.70
38333;DHT22;25748;46.670;14.272;2023-08-21T09:27:39;31.00;47.60
38333;DHT22;25748;46.670;14.272;2023-08-21T09:30:09;31.20;48.00
38333;DHT22;25748;46.670;14.272;2023-08-21T09:32:55;30.90;46.90
38333;DHT22;25748;46.670;14.272;2023-08-21T09:35:21;30.20;47.70
38333;DHT22;25748;46.670;14.272;2023-08-21T09:37:47;29.70;47.90
38333;DHT22;25748;46.670;14.272;2023-08-21T09:40:15;30.00;48.00
38333;DHT22;25748;46.670;14.272;2023-08-21T09:42:40;29.80;47.00
38333;DHT22;25748;46.670;14.272;2023-08-21T09:45:06;29.40;47.40
38333;DHT22;25748;46.670;14.272;2023-08-21T09:47:33;29.00;46.80
38333;DHT22;25748;46.670;14.272;2023-08-21T09:49:59;29.10;47.60
38333;DHT22;25748;46.670;14.272;2023-08-21T09:52:26;29.20;47.60
38333;DHT22;25748;46.670;14.272;2023-08-21T09:54:58;29.20;47.60
38333;DHT22;25748;46.670;14.272;2023-08-21T09:57:24;29.20;47.50
38333;DHT22;25748;46.670;14.272;2023-08-21T09:59:53;29.20;47.20
38333;DHT22;25748;46.670;14.272;2023-08-21T10:02:23;29.30;47.10
38333;DHT22;25748;46.670;14.272;2023-08-21T10:04:49;29.40;47.70
38333;DHT22;25748;46.670;14.272;2023-08-21T10:07:21;29.50;48.20
38333;DHT22;25748;46.670;14.272;2023-08-21T10:09:50;29.80;46.60
38333;DHT22;25748;46.670;14.272;2023-08-21T10:12:16;29.90;47.00
38333;DHT22;25748;46.670;14.272;2023-08-21T10:14:43;30.40;46.80
38333;DHT22;25748;46.670;14.272;2023-08-21T10:17:09;30.30;46.10
38333;DHT22;25748;46.670;14.272;2023-08-21T10:19:35;30.30;46.00
38333;DHT22;25748;46.670;14.272;2023-08-21T10:22:01;30.90;46.40
38333;DHT22;25748;46.670;14.272;2023-08-21T10:24:36;31.30;45.70
38333;DHT22;25748;46.670;14.272;2023-08-21T10:27:03;31.30;45.70
38333;DHT22;25748;46.670;14.272;2023-08-21T10:29:28;30.90;46.10
38333;DHT22;25748;46.670;14.272;2023-08-21T10:32:01;30.50;45.80
38333;DHT22;25748;46.670;14.272;2023-08-21T10:34:36;30.30;45.40
38333;DHT22;25748;46.670;14.272;2023-08-21T10:37:10;30.20;45.70
38333;DHT22;25748;46.670;14.272;2023-08-21T10:39:39;30.30;46.70
38333;DHT22;25748;46.670;14.272;2023-08-21T10:42:11;30.30;46.70
38333;DHT22;25748;46.670;14.272;2023-08-21T10:49:59;30.80;45.90
38333;DHT22;25748;46.670;14.272;2023-08-21T10:54:57;30.90;45.40
38333;DHT22;25748;46.670;14.272;2023-08-21T10:57:24;30.80;46.00
38333;DHT22;25748;46.670;14.272;2023-08-21T11:02:16;31.70;45.40
38333;DHT22;25748;46.670;14.272;2023-08-21T11:04:41;31.90;46.10
38333;DHT22;25748;46.670;14.272;2023-08-21T11:07:10;32.20;45.00
38333;DHT22;25748;46.670;14.272;2023-08-21T11:09:36;32.10;44.40
38333;DHT22;25748;46.670;14.272;2023-08-21T11:12:09;32.00;44.60
38333;DHT22;25748;46.670;14.272;2023-08-21T11:14:35;31.70;44.60
38333;DHT22;25748;46.670;14.272;2023-08-21T11:17:02;31.50;44.60
38333;DHT22;25748;46.670;14.272;2023-08-21T11:19:31;31.60;44.60
38333;DHT22;25748;46.670;14.272;2023-08-21T11:21:57;31.60;43.70
38333;DHT22;25748;46.670;14.272;2023-08-21T11:24:30;31.50;43.70
38333;DHT22;25748;46.670;14.272;2023-08-21T11:26:56;31.80;42.90
38333;DHT22;25748;46.670;14.272;2023-08-21T11:29:22;32.00;43.70
38333;DHT22;25748;46.670;14.272;2023-08-21T11:31:48;32.30;43.50
38333;DHT22;25748;46.670;14.272;2023-08-21T11:34:19;32.60;43.30
38333;DHT22;25748;46.670;14.272;2023-08-21T11:36:44;32.10;43.80
38333;DHT22;25748;46.670;14.272;2023-08-21T11:39:10;32.10;44.40
38333;DHT22;25748;46.670;14.272;2023-08-21T11:41:56;32.30;44.70
38333;DHT22;25748;46.670;14.272;2023-08-21T11:44:22;32.50;44.30
38333;DHT22;25748;46.670;14.272;2023-08-21T11:46:51;32.70;43.80
38333;DHT22;25748;46.670;14.272;2023-08-21T11:49:18;33.00;43.70
38333;DHT22;25748;46.670;14.272;2023-08-21T11:51:47;33.10;43.50
38333;DHT22;25748;46.670;14.272;2023-08-21T11:54:13;33.20;44.10
38333;DHT22;25748;46.670;14.272;2023-08-21T11:56:39;32.90;42.60
38333;DHT22;25748;46.670;14.272;2023-08-21T11:59:06;32.70;42.80
38333;DHT22;25748;46.670;14.272;2023-08-21T12:01:35;32.90;44.40
38333;DHT22;25748;46.670;14.272;2023-08-21T12:04:01;33.30;44.00
38333;DHT22;25748;46.670;14.272;2023-08-21T12:06:26;33.60;42.90
38333;DHT22;25748;46.670;14.272;2023-08-21T12:08:57;33.90;44.00
38333;DHT22;25748;46.670;14.272;2023-08-21T12:11:23;34.00;42.80
38333;DHT22;25748;46.670;14.272;2023-08-21T12:13:49;34.10;43.10
38333;DHT22;25748;46.670;14.272;2023-08-21T12:16:16;33.80;42.10
38333;DHT22;25748;46.670;14.272;2023-08-21T12:18:41;33.30;41.40
38333;DHT22;25748;46.670;14.272;2023-08-21T12:21:07;33.40;41.30
38333;DHT22;25748;46.670;14.272;2023-08-21T12:23:33;33.10;42.00
38333;DHT22;25748;46.670;14.272;2023-08-21T12:25:59;33.10;42.00
38333;DHT22;25748;46.670;14.272;2023-08-21T12:28:25;33.30;42.20
38333;DHT22;25748;46.670;14.272;2023-08-21T12:30:51;33.50;42.20
38333;DHT22;25748;46.670;14.272;2023-08-21T12:33:19;33.70;42.40
38333;DHT22;25748;46.670;14.272;2023-08-21T12:35:45;33.90;42.50
38333;DHT22;25748;46.670;14.272;2023-08-21T12:38:11;34.00;42.10
38333;DHT22;25748;46.670;14.272;2023-08-21T12:40:38;34.20;42.20
38333;DHT22;25748;46.670;14.272;2023-08-21T12:43:04;34.40;41.90
38333;DHT22;25748;46.670;14.272;2023-08-21T12:45:30;34.50;41.60
38333;DHT22;25748;46.670;14.272;2023-08-21T12:47:56;34.40;41.30
38333;DHT22;25748;46.670;14.272;2023-08-21T12:50:21;34.60;41.60
38333;DHT22;25748;46.670;14.272;2023-08-21T12:52:47;34.80;41.30
38333;DHT22;25748;46.670;14.272;2023-08-21T12:55:13;34.90;42.10
38333;DHT22;25748;46.670;14.272;2023-08-21T12:57:39;35.10;41.50
38333;DHT22;25748;46.670;14.272;2023-08-21T13:00:05;35.00;40.90
38333;DHT22;25748;46.670;14.272;2023-08-21T13:02:31;35.00;41.30
38333;DHT22;25748;46.670;14.272;2023-08-21T13:04:57;35.30;41.60
38333;DHT22;25748;46.670;14.272;2023-08-21T13:07:22;35.30;42.00
38333;DHT22;25748;46.670;14.272;2023-08-21T13:09:48;35.50;42.00
38333;DHT22;25748;46.670;14.272;2023-08-21T13:12:14;34.90;41.20
38333;DHT22;25748;46.670;14.272;2023-08-21T13:14:39;34.60;41.30
38333;DHT22;25748;46.670;14.272;2023-08-21T13:17:06;34.50;40.30
38333;DHT22;25748;46.670;14.272;2023-08-21T13:19:32;34.20;40.70
38333;DHT22;25748;46.670;14.272;2023-08-21T13:21:57;34.50;42.20
38333;DHT22;25748;46.670;14.272;2023-08-21T13:24:23;34.50;41.40
38333;DHT22;25748;46.670;14.272;2023-08-21T13:26:49;34.60;41.60
38333;DHT22;25748;46.670;14.272;2023-08-21T13:29:14;34.50;40.90
38333;DHT22;25748;46.670;14.272;2023-08-21T13:31:40;34.70;40.30
38333;DHT22;25748;46.670;14.272;2023-08-21T13:34:06;34.90;40.30
38333;DHT22;25748;46.670;14.272;2023-08-21T13:36:31;35.00;39.80
38333;DHT22;25748;46.670;14.272;2023-08-21T13:38:57;34.70;39.50
38333;DHT22;25748;46.670;14.272;2023-08-21T13:41:23;34.10;39.80
38333;DHT22;25748;46.670;14.272;2023-08-21T13:43:48;34.50;40.10
38333;DHT22;25748;46.670;14.272;2023-08-21T13:46:14;34.80;41.40
38333;DHT22;25748;46.670;14.272;2023-08-21T13:48:40;34.90;40.50
38333;DHT22;25748;46.670;14.272;2023-08-21T13:51:06;34.90;39.90
38333;DHT22;25748;46.670;14.272;2023-08-21T13:53:32;35.20;40.30
38333;DHT22;25748;46.670;14.272;2023-08-21T13:55:57;35.30;40.20
38333;DHT22;25748;46.670;14.272;2023-08-21T13:58:23;35.40;39.90
38333;DHT22;25748;46.670;14.272;2023-08-21T14:00:49;35.40;39.00
38333;DHT22;25748;46.670;14.272;2023-08-21T14:03:15;35.40;39.70
38333;DHT22;25748;46.670;14.272;2023-08-21T14:05:40;35.40;39.10
38333;DHT22;25748;46.670;14.272;2023-08-21T14:08:06;35.40;39.90
38333;DHT22;25748;46.670;14.272;2023-08-21T14:10:32;35.20;39.50
38333;DHT22;25748;46.670;14.272;2023-08-21T14:12:57;35.20;40.10
38333;DHT22;25748;46.670;14.272;2023-08-21T14:15:24;35.20;40.00
38333;DHT22;25748;46.670;14.272;2023-08-21T14:17:49;35.20;40.90
38333;DHT22;25748;46.670;14.272;2023-08-21T14:20:15;35.20;39.80
38333;DHT22;25748;46.670;14.272;2023-08-21T14:22:41;35.10;39.50
38333;DHT22;25748;46.670;14.272;2023-08-21T14:25:07;35.00;40.10
38333;DHT22;25748;46.670;14.272;2023-08-21T14:27:33;34.90;40.00
38333;DHT22;25748;46.670;14.272;2023-08-21T14:29:59;34.90;39.80
38333;DHT22;25748;46.670;14.272;2023-08-21T14:32:25;34.80;39.70
38333;DHT22;25748;46.670;14.272;2023-08-21T14:34:51;34.60;40.00
38333;DHT22;25748;46.670;14.272;2023-08-21T14:37:20;34.60;40.30
38333;DHT22;25748;46.670;14.272;2023-08-21T14:39:46;34.50;40.10
38333;DHT22;25748;46.670;14.272;2023-08-21T14:42:12;34.40;40.10
38333;DHT22;25748;46.670;14.272;2023-08-21T14:44:38;34.30;40.40
38333;DHT22;25748;46.670;14.272;2023-08-21T14:47:05;34.30;40.30
38333;DHT22;25748;46.670;14.272;2023-08-21T14:49:31;34.10;39.40
38333;DHT22;25748;46.670;14.272;2023-08-21T14:51:58;34.00;39.30
38333;DHT22;25748;46.670;14.272;2023-08-21T14:54:24;34.00;39.60
38333;DHT22;25748;46.670;14.272;2023-08-21T14:56:50;33.90;38.90
38333;DHT22;25748;46.670;14.272;2023-08-21T14:59:16;33.70;38.70
38333;DHT22;25748;46.670;14.272;2023-08-21T15:01:42;33.70;38.80
38333;DHT22;25748;46.670;14.272;2023-08-21T15:04:07;33.70;39.00
38333;DHT22;25748;46.670;14.272;2023-08-21T15:06:34;33.70;38.60
38333;DHT22;25748;46.670;14.272;2023-08-21T15:09:00;33.50;39.00
38333;DHT22;25748;46.670;14.272;2023-08-21T15:11:29;33.50;38.60
38333;DHT22;25748;46.670;14.272;2023-08-21T15:13:54;33.50;38.70
38333;DHT22;25748;46.670;14.272;2023-08-21T15:16:20;33.40;39.00
38333;DHT22;25748;46.670;14.272;2023-08-21T15:18:46;33.40;39.70
38333;DHT22;25748;46.670;14.272;2023-08-21T15:21:18;33.30;39.80
38333;DHT22;25748;46.670;14.272;2023-08-21T15:23:44;33.20;39.90
38333;DHT22;25748;46.670;14.272;2023-08-21T15:26:09;33.20;40.70